Time;durP1;ratioP1;P1;durP2;ratioP2;P2;SDS_P1;SDS_P2;PMS_P1;PMS_P2;Temp;Humidity;BMP_temperature;BMP_pressure;BME280_temperature;BME280_humidity;BME280_pressure;Samples;Min_cycle;Max_cycle;Signal;HPM_P1;HPM_P2
2023/04/28 00:01:28;;;;;;;4.97;3.80;;;9.90;94.70;;;;;;5069184;28;20478;-53
2023/04/28 00:03:54;;;;;;;6.28;3.63;;;9.90;94.40;;;;;;5066492;28;20097;-52
2023/04/28 00:06:20;;;;;;;4.18;3.60;;;9.90;94.30;;;;;;5066885;28;20021;-53
2023/04/28 00:08:45;;;;;;;3.97;3.40;;;9.80;94.30;;;;;;5065081;28;20040;-48
2023/04/28 00:11:11;;;;;;;3.53;3.22;;;9.90;94.50;;;;;;5065343;28;20085;-50
2023/04/28 00:13:37;;;;;;;4.35;3.33;;;9.90;94.40;;;;;;5063636;28;20111;-50
2023/04/28 00:16:03;;;;;;;3.80;3.40;;;9.90;94.40;;;;;;5069782;28;20470;-51
2023/04/28 00:18:29;;;;;;;3.90;3.50;;;9.90;94.40;;;;;;5064983;28;20044;-49
2023/04/28 00:20:55;;;;;;;4.43;3.70;;;9.90;94.40;;;;;;5067564;28;20486;-48
2023/04/28 00:23:21;;;;;;;5.85;3.33;;;9.90;94.20;;;;;;5072167;28;20465;-52
2023/04/28 00:25:53;;;;;;;4.47;3.63;;;9.90;94.10;;;;;;5059571;28;20032;-51
2023/04/28 00:28:20;;;;;;;3.60;3.22;;;9.90;94.10;;;;;;5061147;28;20040;-54
2023/04/28 00:30:46;;;;;;;4.78;3.55;;;9.90;94.20;;;;;;5067186;28;20048;-51
2023/04/28 00:33:12;;;;;;;4.10;3.40;;;9.90;94.10;;;;;;5065370;28;20029;-51
2023/04/28 00:35:38;;;;;;;4.60;3.40;;;9.90;94.20;;;;;;5066121;28;20123;-48
2023/04/28 00:38:04;;;;;;;3.92;3.40;;;9.90;94.20;;;;;;5071866;28;20233;-49
2023/04/28 00:40:33;;;;;;;4.78;3.75;;;9.90;94.10;;;;;;5065918;28;20036;-49
2023/04/28 00:42:59;;;;;;;5.22;3.47;;;9.90;93.90;;;;;;5072057;28;20033;-47
2023/04/28 00:45:25;;;;;;;5.93;3.70;;;9.90;93.90;;;;;;5071464;28;20261;-49
2023/04/28 00:47:50;;;;;;;4.47;3.67;;;9.80;93.80;;;;;;5071621;28;20031;-47
2023/04/28 00:50:16;;;;;;;4.65;4.00;;;9.90;93.90;;;;;;5069733;28;20028;-51
2023/04/28 00:52:42;;;;;;;4.38;3.85;;;9.80;93.80;;;;;;5062956;28;20025;-49
2023/04/28 00:55:08;;;;;;;4.25;3.53;;;9.80;93.70;;;;;;5054081;28;20040;-48
2023/04/28 00:57:35;;;;;;;5.05;3.67;;;9.80;93.60;;;;;;5060605;28;20044;-53
2023/04/28 01:00:03;;;;;;;4.47;3.42;;;9.80;93.60;;;;;;5059149;28;20035;-49
2023/04/28 01:02:29;;;;;;;3.42;3.10;;;9.80;93.90;;;;;;5071013;28;20068;-51
2023/04/28 01:04:56;;;;;;;3.97;3.28;;;9.80;93.80;;;;;;5062297;28;20116;-48
2023/04/28 01:07:22;;;;;;;4.20;3.22;;;9.90;93.90;;;;;;5066176;28;20106;-48
2023/04/28 01:09:48;;;;;;;5.93;3.67;;;9.90;93.90;;;;;;5070010;28;20425;-47
2023/04/28 01:12:13;;;;;;;4.72;3.53;;;9.90;93.90;;;;;;5071720;28;20036;-52
2023/04/28 01:14:39;;;;;;;3.83;3.17;;;9.90;93.70;;;;;;5071238;28;20037;-52
2023/04/28 01:17:06;;;;;;;4.78;3.53;;;9.90;93.70;;;;;;5070890;28;20064;-48
2023/04/28 01:19:31;;;;;;;4.32;3.60;;;9.90;93.60;;;;;;5071294;28;20063;-51
2023/04/28 01:21:57;;;;;;;4.57;3.67;;;9.90;93.50;;;;;;5066515;28;20096;-51
2023/04/28 01:24:23;;;;;;;4.88;3.47;;;9.90;93.50;;;;;;5062062;28;20082;-47
2023/04/28 01:26:48;;;;;;;4.10;3.70;;;9.90;93.40;;;;;;5065533;28;20028;-50
2023/04/28 01:29:14;;;;;;;4.15;3.35;;;9.90;93.30;;;;;;5071329;28;20402;-50
2023/04/28 01:31:40;;;;;;;4.07;3.60;;;9.80;93.50;;;;;;5069908;28;20046;-48
2023/04/28 01:34:05;;;;;;;3.78;3.22;;;9.80;93.30;;;;;;5064413;28;20113;-50
2023/04/28 01:36:31;;;;;;;5.05;3.33;;;9.90;93.40;;;;;;5068986;28;20028;-51
2023/04/28 01:38:57;;;;;;;5.75;3.97;;;9.80;93.30;;;;;;5064822;28;20057;-48
2023/04/28 01:41:23;;;;;;;3.63;3.20;;;9.80;93.10;;;;;;5067580;28;20021;-51
2023/04/28 01:43:48;;;;;;;4.25;3.30;;;9.80;93.10;;;;;;5068005;28;20036;-49
2023/04/28 01:46:14;;;;;;;5.05;3.28;;;9.80;93.20;;;;;;5070761;28;20414;-53
2023/04/28 01:48:40;;;;;;;6.75;3.58;;;9.80;93.10;;;;;;5068261;28;20087;-51
2023/04/28 01:51:05;;;;;;;5.25;3.20;;;9.80;93.30;;;;;;5069529;28;20016;-49
2023/04/28 01:53:32;;;;;;;6.18;3.40;;;9.80;93.00;;;;;;5070465;28;20116;-51
2023/04/28 01:55:57;;;;;;;7.40;3.45;;;9.80;93.00;;;;;;5070592;28;20029;-50
2023/04/28 01:58:23;;;;;;;4.30;3.50;;;9.80;92.90;;;;;;5058942;28;20036;-53
2023/04/28 02:00:49;;;;;;;3.90;3.50;;;9.80;92.50;;;;;;5054299;28;20029;-48
2023/04/28 02:03:15;;;;;;;5.05;3.47;;;9.80;92.50;;;;;;5068963;28;20043;-49
2023/04/28 02:05:41;;;;;;;3.50;3.15;;;9.80;92.60;;;;;;5059387;28;20033;-48
2023/04/28 02:08:06;;;;;;;3.35;2.95;;;9.80;92.50;;;;;;5067907;28;20056;-46
2023/04/28 02:10:32;;;;;;;3.35;3.05;;;9.80;92.30;;;;;;5064702;28;20085;-48
2023/04/28 02:12:57;;;;;;;4.63;2.92;;;9.80;92.30;;;;;;5064092;28;20025;-47
2023/04/28 02:15:23;;;;;;;3.63;3.33;;;9.80;92.20;;;;;;5063504;28;20037;-51
2023/04/28 02:17:49;;;;;;;4.47;3.03;;;9.80;92.20;;;;;;5066048;28;20043;-47
2023/04/28 02:20:15;;;;;;;3.83;2.90;;;9.80;92.30;;;;;;5069634;28;20028;-47
2023/04/28 02:22:40;;;;;;;3.22;2.92;;;9.80;92.10;;;;;;5057017;28;20040;-49
2023/04/28 02:25:07;;;;;;;5.30;3.00;;;9.80;92.00;;;;;;5068415;28;20032;-50
2023/04/28 02:27:35;;;;;;;4.07;3.17;;;9.80;92.00;;;;;;5068898;28;20497;-48
2023/04/28 02:30:02;;;;;;;4.45;3.20;;;9.80;92.00;;;;;;5065555;28;20017;-48
2023/04/28 02:32:27;;;;;;;3.65;3.05;;;9.80;92.00;;;;;;5069554;28;20032;-49
2023/04/28 02:34:54;;;;;;;3.40;3.10;;;9.80;92.00;;;;;;5068566;28;20043;-48
2023/04/28 02:37:20;;;;;;;4.43;3.10;;;9.80;91.80;;;;;;5069298;28;20037;-52
2023/04/28 02:39:46;;;;;;;3.33;3.03;;;9.80;91.90;;;;;;5062692;28;20090;-47
2023/04/28 02:42:11;;;;;;;4.90;3.00;;;9.80;91.90;;;;;;5056292;28;20036;-48
2023/04/28 02:44:37;;;;;;;4.78;3.38;;;9.80;91.80;;;;;;5065229;28;20043;-54
2023/04/28 02:47:03;;;;;;;5.72;3.20;;;9.80;91.80;;;;;;5066238;28;20376;-50
2023/04/28 02:49:29;;;;;;;3.42;2.92;;;9.80;91.90;;;;;;5056753;28;20016;-51
2023/04/28 02:51:54;;;;;;;4.95;3.45;;;9.80;91.80;;;;;;5070164;28;20060;-47
2023/04/28 02:54:26;;;;;;;4.10;3.25;;;9.80;91.70;;;;;;5070044;28;20492;-48
2023/04/28 02:56:53;;;;;;;3.85;3.22;;;9.80;91.70;;;;;;5068070;28;20565;-47
2023/04/28 02:59:19;;;;;;;4.47;3.38;;;9.80;91.70;;;;;;5056073;28;20094;-48
2023/04/28 03:01:45;;;;;;;4.32;3.20;;;9.80;91.60;;;;;;5062620;28;20025;-49
2023/04/28 03:04:10;;;;;;;4.68;3.53;;;9.80;91.50;;;;;;5064190;28;20172;-47
2023/04/28 03:06:36;;;;;;;4.28;3.30;;;9.80;91.50;;;;;;5067088;28;20033;-49
2023/04/28 03:09:02;;;;;;;4.00;3.10;;;9.80;91.50;;;;;;5060261;28;20037;-47
2023/04/28 03:11:28;;;;;;;3.88;3.05;;;9.80;91.60;;;;;;5056465;28;20104;-49
2023/04/28 03:13:54;;;;;;;4.28;3.13;;;9.80;91.50;;;;;;5064311;28;20115;-47
2023/04/28 03:16:19;;;;;;;6.20;3.50;;;9.80;91.60;;;;;;5063254;28;20040;-51
2023/04/28 03:18:45;;;;;;;6.00;3.40;;;9.80;91.40;;;;;;5060088;28;20029;-48
2023/04/28 03:21:11;;;;;;;4.10;3.45;;;9.80;91.30;;;;;;5069318;28;20398;-47
2023/04/28 03:23:36;;;;;;;5.78;3.53;;;9.80;91.20;;;;;;5069169;28;20479;-50
2023/04/28 03:26:02;;;;;;;3.55;3.25;;;9.80;91.20;;;;;;5056085;28;20029;-49
2023/04/28 03:28:28;;;;;;;4.72;3.15;;;9.80;91.30;;;;;;5059038;28;20075;-50
2023/04/28 03:30:53;;;;;;;3.03;2.83;;;9.80;91.40;;;;;;5068859;28;20107;-49
2023/04/28 03:33:19;;;;;;;3.55;3.25;;;9.80;91.40;;;;;;5062169;28;20171;-51
2023/04/28 03:35:45;;;;;;;3.83;2.95;;;9.90;91.30;;;;;;5050503;28;20025;-49
2023/04/28 03:38:11;;;;;;;3.75;3.00;;;9.90;91.10;;;;;;5057507;28;20021;-51
2023/04/28 03:40:36;;;;;;;4.25;3.30;;;9.90;91.10;;;;;;5067542;28;20507;-51
2023/04/28 03:43:02;;;;;;;4.75;3.38;;;9.90;90.90;;;;;;5065480;28;20069;-51
2023/04/28 03:45:28;;;;;;;3.53;3.10;;;9.90;90.90;;;;;;5074148;28;20478;-52
2023/04/28 03:47:54;;;;;;;5.30;3.25;;;9.90;90.90;;;;;;5054135;28;20368;-47
2023/04/28 03:50:19;;;;;;;5.03;3.38;;;9.90;90.90;;;;;;5064180;28;20472;-49
2023/04/28 03:52:45;;;;;;;3.47;3.03;;;9.90;90.80;;;;;;5072496;28;20059;-51
2023/04/28 03:55:11;;;;;;;4.90;3.20;;;10.00;90.70;;;;;;5065184;28;20032;-50
2023/04/28 03:57:37;;;;;;;5.90;3.35;;;9.90;90.60;;;;;;5064744;28;20036;-47
2023/04/28 04:00:03;;;;;;;4.15;3.22;;;10.00;90.60;;;;;;5064053;28;20395;-54
2023/04/28 04:02:28;;;;;;;4.03;2.83;;;10.00;90.50;;;;;;5073780;28;20028;-48
2023/04/28 04:04:54;;;;;;;3.20;2.90;;;10.00;90.40;;;;;;5072892;28;20028;-48
2023/04/28 04:07:21;;;;;;;4.40;3.30;;;10.10;90.40;;;;;;5067211;28;20411;-50
2023/04/28 04:09:47;;;;;;;3.30;3.00;;;10.10;90.30;;;;;;5067852;28;20052;-48
2023/04/28 04:12:13;;;;;;;3.80;2.90;;;10.10;90.40;;;;;;5068133;28;20173;-51
2023/04/28 04:14:39;;;;;;;4.68;3.17;;;10.10;90.30;;;;;;5071932;28;20562;-48
2023/04/28 04:17:05;;;;;;;3.25;2.92;;;10.20;90.20;;;;;;5072140;28;20368;-50
2023/04/28 04:19:31;;;;;;;4.20;3.00;;;10.30;90.00;;;;;;5071267;28;20407;-52
2023/04/28 04:21:56;;;;;;;4.47;3.13;;;10.30;89.70;;;;;;5069381;28;20521;-51
2023/04/28 04:24:22;;;;;;;4.93;3.30;;;10.30;89.50;;;;;;5068776;28;20039;-48
2023/04/28 04:26:47;;;;;;;3.28;2.97;;;10.40;89.10;;;;;;5069792;28;20036;-48
2023/04/28 04:29:13;;;;;;;5.75;3.72;;;10.40;89.40;;;;;;5062434;28;20036;-46
2023/04/28 04:31:39;;;;;;;3.90;3.20;;;10.50;89.00;;;;;;5068585;28;20056;-52
2023/04/28 04:34:05;;;;;;;3.92;3.03;;;10.50;88.70;;;;;;5068778;28;20020;-49
2023/04/28 04:36:31;;;;;;;3.58;2.80;;;10.60;88.30;;;;;;5071973;28;20112;-50
2023/04/28 04:38:57;;;;;;;3.05;2.70;;;10.60;88.00;;;;;;5072380;28;20600;-50
2023/04/28 04:41:24;;;;;;;3.22;2.88;;;10.70;87.90;;;;;;5062602;28;20067;-48
2023/04/28 04:43:50;;;;;;;5.13;3.05;;;10.70;87.90;;;;;;5070896;28;20120;-50
2023/04/28 04:46:16;;;;;;;3.35;2.92;;;10.70;87.80;;;;;;5063816;28;20111;-52
2023/04/28 04:48:42;;;;;;;3.67;3.17;;;10.80;87.70;;;;;;5065430;28;20059;-49
2023/04/28 04:51:07;;;;;;;3.75;2.95;;;10.80;87.10;;;;;;5066802;28;20056;-50
2023/04/28 04:53:33;;;;;;;3.63;3.00;;;10.80;86.80;;;;;;5071452;28;20059;-50
2023/04/28 04:55:59;;;;;;;3.85;2.92;;;10.80;86.30;;;;;;5068187;28;20029;-49
2023/04/28 04:58:25;;;;;;;3.65;2.90;;;10.80;86.50;;;;;;5066738;28;20033;-52
2023/04/28 05:00:50;;;;;;;3.92;2.88;;;10.80;86.50;;;;;;5064062;28;20032;-46
2023/04/28 05:03:16;;;;;;;4.15;2.85;;;10.80;86.60;;;;;;5075578;28;20035;-47
2023/04/28 05:05:43;;;;;;;3.80;3.00;;;10.80;86.50;;;;;;5068201;28;20414;-53
2023/04/28 05:08:10;;;;;;;3.58;2.90;;;10.80;86.50;;;;;;5067755;28;20497;-49
2023/04/28 05:10:36;;;;;;;3.97;3.20;;;10.80;86.20;;;;;;5066838;28;20067;-52
2023/04/28 05:13:01;;;;;;;3.78;2.67;;;10.80;85.90;;;;;;5070959;28;20052;-49
2023/04/28 05:15:28;;;;;;;4.20;3.08;;;10.80;86.10;;;;;;5071490;28;20024;-47
2023/04/28 05:17:54;;;;;;;3.08;2.75;;;10.80;86.00;;;;;;5070773;28;20236;-49
2023/04/28 05:20:19;;;;;;;3.45;2.90;;;10.80;86.00;;;;;;5062543;28;20044;-51
2023/04/28 05:22:45;;;;;;;3.63;2.75;;;10.80;85.90;;;;;;5063611;28;20123;-47
2023/04/28 05:25:10;;;;;;;4.70;2.85;;;10.80;85.90;;;;;;5067873;28;20107;-48
2023/04/28 05:27:38;;;;;;;4.57;3.20;;;10.80;85.60;;;;;;5069587;28;20546;-50
2023/04/28 05:30:06;;;;;;;3.50;2.70;;;10.80;85.50;;;;;;5062769;28;20016;-49
2023/04/28 05:32:32;;;;;;;3.70;2.47;;;10.80;85.70;;;;;;5062083;28;20025;-50
2023/04/28 05:34:58;;;;;;;5.40;2.95;;;10.90;85.80;;;;;;5060150;28;20055;-52
2023/04/28 05:37:24;;;;;;;3.42;2.78;;;10.90;85.60;;;;;;5068641;28;20028;-50
2023/04/28 05:39:49;;;;;;;4.13;2.88;;;10.90;85.30;;;;;;5077610;28;20520;-48
2023/04/28 05:42:15;;;;;;;3.83;2.78;;;10.90;85.20;;;;;;5064674;28;20062;-52
2023/04/28 05:44:40;;;;;;;3.83;2.88;;;10.90;85.20;;;;;;5063784;28;20056;-48
2023/04/28 05:47:06;;;;;;;3.22;2.80;;;11.00;85.40;;;;;;5062381;28;20116;-52
2023/04/28 05:49:32;;;;;;;3.10;2.80;;;11.00;85.40;;;;;;5067072;28;20749;-49
2023/04/28 05:51:57;;;;;;;5.28;2.22;;;11.00;85.10;;;;;;5063846;28;20031;-55
2023/04/28 05:54:23;;;;;;;3.17;2.60;;;11.10;85.10;;;;;;5065932;28;20100;-48
2023/04/28 05:56:49;;;;;;;5.22;2.47;;;11.20;84.90;;;;;;5067513;28;20030;-48
2023/04/28 05:59:15;;;;;;;2.88;2.58;;;11.20;84.10;;;;;;5058664;28;20372;-54
2023/04/28 06:01:40;;;;;;;3.00;2.42;;;11.20;84.50;;;;;;5067198;28;20599;-48
2023/04/28 06:04:06;;;;;;;4.22;2.60;;;11.20;84.50;;;;;;5060988;28;20032;-53
2023/04/28 06:06:33;;;;;;;4.45;2.88;;;11.30;84.30;;;;;;5067978;28;20111;-53
2023/04/28 06:08:58;;;;;;;2.67;2.47;;;11.40;84.10;;;;;;5066564;28;20029;-48
2023/04/28 06:11:24;;;;;;;3.00;2.65;;;11.40;83.70;;;;;;5070466;28;20035;-49
2023/04/28 06:13:50;;;;;;;2.80;2.50;;;11.30;83.10;;;;;;5070021;28;20028;-47
2023/04/28 06:16:16;;;;;;;2.80;2.42;;;11.40;83.50;;;;;;5069470;28;20052;-51
2023/04/28 06:18:42;;;;;;;3.28;2.50;;;11.40;83.40;;;;;;5066251;28;20044;-47
2023/04/28 06:21:08;;;;;;;4.47;2.58;;;11.40;82.80;;;;;;5065656;28;20036;-48
2023/04/28 06:23:34;;;;;;;2.72;2.53;;;11.40;82.50;;;;;;5063976;28;21953;-49
2023/04/28 06:26:00;;;;;;;3.05;2.72;;;11.40;82.30;;;;;;5067766;28;20387;-47
2023/04/28 06:28:26;;;;;;;2.72;2.47;;;11.40;82.30;;;;;;5064194;28;20040;-53
2023/04/28 06:30:52;;;;;;;4.18;2.30;;;11.40;82.10;;;;;;5068774;28;20029;-49
2023/04/28 06:33:17;;;;;;;2.92;2.30;;;11.40;82.00;;;;;;5069455;28;20129;-53
2023/04/28 06:35:43;;;;;;;2.88;2.55;;;11.50;81.90;;;;;;5064726;28;20119;-46
2023/04/28 06:38:09;;;;;;;2.70;2.50;;;11.50;82.10;;;;;;5070545;28;20032;-49
2023/04/28 06:40:34;;;;;;;4.97;2.67;;;11.50;81.90;;;;;;5063226;28;20729;-52
2023/04/28 06:43:00;;;;;;;2.92;2.40;;;11.50;81.60;;;;;;5065301;28;20031;-53
2023/04/28 06:45:26;;;;;;;3.55;2.22;;;11.50;81.40;;;;;;5060488;28;20767;-54
2023/04/28 06:47:54;;;;;;;3.28;2.55;;;11.50;82.10;;;;;;5058998;28;20551;-54
2023/04/28 06:50:20;;;;;;;2.67;2.40;;;11.50;81.30;;;;;;5050919;28;20039;-54
2023/04/28 06:52:46;;;;;;;3.03;2.55;;;11.50;81.20;;;;;;5053066;28;20072;-51
2023/04/28 06:55:16;;;;;;;3.47;2.50;;;11.50;81.00;;;;;;5037386;28;20237;-54
2023/04/28 06:57:41;;;;;;;2.70;2.47;;;11.60;81.00;;;;;;5052807;28;20063;-55
2023/04/28 07:00:08;;;;;;;2.60;2.40;;;11.60;81.00;;;;;;5047989;28;20033;-58
2023/04/28 07:02:35;;;;;;;2.65;2.42;;;11.60;81.10;;;;;;5049448;28;20025;-49
2023/04/28 07:05:01;;;;;;;3.53;2.28;;;11.60;80.70;;;;;;5045812;28;20074;-56
2023/04/28 07:07:26;;;;;;;3.50;2.20;;;11.70;80.90;;;;;;5033142;28;20044;-54
2023/04/28 07:09:52;;;;;;;2.75;2.55;;;11.70;81.10;;;;;;5049733;28;20923;-51
2023/04/28 07:12:18;;;;;;;2.67;2.30;;;11.80;80.90;;;;;;5050077;28;20126;-53
2023/04/28 07:14:43;;;;;;;2.90;2.35;;;11.90;80.80;;;;;;5048757;28;20024;-49
2023/04/28 07:17:09;;;;;;;2.85;2.20;;;12.00;80.20;;;;;;5055992;28;20028;-51
2023/04/28 07:19:35;;;;;;;2.45;2.25;;;12.00;79.90;;;;;;5056618;28;20055;-52
2023/04/28 07:22:00;;;;;;;2.60;2.40;;;12.10;79.40;;;;;;5053736;28;20124;-52
2023/04/28 07:24:27;;;;;;;2.95;2.35;;;12.10;79.40;;;;;;5053779;28;20039;-53
2023/04/28 07:26:52;;;;;;;2.45;2.20;;;12.10;79.00;;;;;;5053347;28;20020;-52
2023/04/28 07:29:18;;;;;;;2.60;2.25;;;12.20;78.60;;;;;;5051149;28;20086;-52
2023/04/28 07:31:44;;;;;;;2.25;2.10;;;12.20;78.60;;;;;;5055357;28;20028;-52
2023/04/28 07:34:10;;;;;;;2.60;2.40;;;12.20;78.80;;;;;;5049229;28;20027;-52
2023/04/28 07:36:35;;;;;;;2.40;2.20;;;12.20;78.60;;;;;;5056344;28;20024;-52
2023/04/28 07:39:02;;;;;;;3.08;2.40;;;12.30;78.40;;;;;;5054295;28;20045;-50
2023/04/28 07:41:27;;;;;;;2.45;2.25;;;12.30;78.20;;;;;;5057662;28;20037;-56
2023/04/28 07:43:53;;;;;;;3.58;2.60;;;12.40;78.20;;;;;;5054994;28;20477;-49
2023/04/28 07:46:19;;;;;;;3.35;2.42;;;12.50;77.80;;;;;;5062654;28;20110;-52
2023/04/28 07:48:45;;;;;;;2.67;2.03;;;12.60;77.70;;;;;;5059755;28;20062;-48
2023/04/28 07:51:10;;;;;;;2.72;2.30;;;12.70;77.20;;;;;;5059526;28;20032;-54
2023/04/28 07:53:36;;;;;;;2.30;2.13;;;12.70;76.60;;;;;;5053828;28;21729;-52
2023/04/28 07:56:02;;;;;;;2.78;2.20;;;12.80;76.10;;;;;;5051748;28;20037;-55
2023/04/28 07:58:28;;;;;;;3.05;2.50;;;12.80;75.90;;;;;;5043446;28;20482;-57
2023/04/28 08:00:53;;;;;;;3.80;2.35;;;12.70;75.70;;;;;;5040128;28;20037;-48
2023/04/28 08:03:20;;;;;;;2.60;2.40;;;12.70;75.80;;;;;;5054454;28;20029;-54
2023/04/28 08:05:45;;;;;;;3.28;2.30;;;12.70;75.80;;;;;;5046170;28;20028;-51
2023/04/28 08:08:11;;;;;;;2.63;2.30;;;12.70;75.80;;;;;;5056071;28;20371;-48
2023/04/28 08:10:39;;;;;;;2.60;2.40;;;12.70;75.80;;;;;;5056949;28;20036;-55
2023/04/28 08:13:05;;;;;;;3.22;2.38;;;12.80;75.60;;;;;;5043878;28;20037;-57
2023/04/28 08:15:30;;;;;;;2.65;2.28;;;12.80;75.40;;;;;;5051385;28;20074;-52
2023/04/28 08:17:56;;;;;;;3.50;2.30;;;12.90;75.40;;;;;;5052878;28;20040;-54
2023/04/28 08:20:22;;;;;;;3.17;1.95;;;12.90;75.00;;;;;;5046123;28;20098;-54
2023/04/28 08:22:48;;;;;;;2.75;2.40;;;13.00;75.00;;;;;;5050012;28;20221;-55
2023/04/28 08:25:14;;;;;;;2.67;2.47;;;13.00;74.80;;;;;;5052003;28;20044;-51
2023/04/28 08:27:40;;;;;;;2.75;2.33;;;13.00;74.50;;;;;;5049353;28;20040;-54
2023/04/28 08:30:07;;;;;;;2.55;2.13;;;13.00;74.50;;;;;;5044571;28;20046;-55
2023/04/28 08:32:33;;;;;;;2.20;2.00;;;13.10;74.40;;;;;;5048928;28;20032;-52
2023/04/28 08:34:59;;;;;;;3.90;2.40;;;13.10;74.50;;;;;;5052787;28;20067;-54
2023/04/28 08:37:26;;;;;;;3.17;2.10;;;13.20;74.40;;;;;;5049757;28;20052;-52
2023/04/28 08:39:58;;;;;;;4.03;2.33;;;13.10;74.00;;;;;;5054732;28;20392;-53
2023/04/28 08:42:28;;;;;;;2.78;2.22;;;13.10;74.00;;;;;;5056282;28;20170;-49
2023/04/28 08:44:58;;;;;;;4.07;2.47;;;13.20;74.50;;;;;;5052907;28;20032;-53
2023/04/28 08:47:37;;;;;;;2.67;2.30;;;13.20;74.40;;;;;;5052757;28;20140;-53
2023/04/28 08:50:11;;;;;;;3.15;2.17;;;13.20;74.50;;;;;;5055466;28;20060;-51
2023/04/28 08:52:37;;;;;;;2.40;2.20;;;13.20;74.10;;;;;;5058418;28;20581;-53
2023/04/28 08:55:08;;;;;;;2.53;2.33;;;13.20;74.00;;;;;;5054525;28;20055;-54
2023/04/28 08:57:37;;;;;;;2.75;2.30;;;13.20;73.80;;;;;;5054438;28;20038;-50
2023/04/28 09:00:03;;;;;;;3.00;2.50;;;13.30;73.70;;;;;;5052395;28;20028;-52
2023/04/28 09:02:29;;;;;;;2.35;2.15;;;13.20;73.50;;;;;;5050996;28;20051;-55
2023/04/28 09:04:54;;;;;;;3.10;2.25;;;13.30;73.40;;;;;;5051255;28;20032;-54
2023/04/28 09:07:20;;;;;;;3.33;2.58;;;13.30;73.40;;;;;;5054202;28;20053;-54
2023/04/28 09:09:46;;;;;;;2.20;2.00;;;13.30;72.80;;;;;;5046658;28;20036;-55
2023/04/28 09:12:11;;;;;;;2.60;2.13;;;13.20;72.50;;;;;;5052821;28;20056;-52
2023/04/28 09:14:38;;;;;;;2.65;2.22;;;13.20;72.50;;;;;;5041806;28;20040;-51
2023/04/28 09:17:11;;;;;;;2.40;2.22;;;13.20;72.60;;;;;;5055936;28;20086;-52
2023/04/28 09:19:38;;;;;;;2.30;2.10;;;13.20;72.60;;;;;;5049855;28;20044;-53
2023/04/28 09:22:05;;;;;;;2.50;2.10;;;13.20;72.60;;;;;;5055039;28;20095;-48
2023/04/28 09:24:35;;;;;;;2.25;2.05;;;13.20;72.70;;;;;;5050137;28;20032;-55
2023/04/28 09:27:03;;;;;;;3.50;2.22;;;13.20;72.80;;;;;;5054390;28;20722;-50
2023/04/28 09:29:33;;;;;;;2.30;2.05;;;13.20;72.10;;;;;;5057976;28;20118;-52
2023/04/28 09:32:18;;;;;;;3.10;2.20;;;13.20;72.00;;;;;;5053303;28;20482;-48
2023/04/28 09:34:45;;;;;;;2.13;1.92;;;13.20;71.90;;;;;;5058415;28;21226;-50
2023/04/28 09:37:22;;;;;;;2.63;2.42;;;13.20;72.00;;;;;;5061350;28;20041;-51
2023/04/28 09:39:50;;;;;;;2.03;1.92;;;13.20;72.30;;;;;;5053289;28;20031;-55
2023/04/28 09:42:34;;;;;;;2.20;2.00;;;13.20;72.20;;;;;;5054809;28;20166;-57
2023/04/28 09:45:07;;;;;;;2.30;2.13;;;13.30;71.70;;;;;;5053902;28;20039;-57
2023/04/28 09:47:36;;;;;;;2.42;2.17;;;13.30;72.30;;;;;;5051568;28;20239;-54
2023/04/28 09:50:08;;;;;;;2.55;2.17;;;13.30;72.10;;;;;;5040003;28;20098;-51
2023/04/28 09:52:34;;;;;;;2.60;2.40;;;13.30;71.80;;;;;;5053370;28;20052;-55
2023/04/28 09:55:02;;;;;;;3.45;2.47;;;13.30;72.10;;;;;;5045605;28;20043;-53
2023/04/28 09:57:32;;;;;;;2.80;2.30;;;13.30;71.70;;;;;;5041895;28;20033;-54
2023/04/28 09:59:59;;;;;;;2.33;2.10;;;13.40;71.70;;;;;;5048950;28;20063;-56
2023/04/28 10:02:26;;;;;;;2.92;2.30;;;13.40;71.40;;;;;;5047594;28;20081;-52
2023/04/28 10:04:51;;;;;;;2.30;2.10;;;13.50;70.80;;;;;;5045554;28;20153;-50
2023/04/28 10:07:19;;;;;;;2.72;2.33;;;13.50;70.50;;;;;;5049271;28;20043;-56
2023/04/28 10:09:49;;;;;;;2.45;2.22;;;13.50;70.10;;;;;;5050804;28;20576;-52
2023/04/28 10:12:19;;;;;;;3.90;2.38;;;13.50;69.60;;;;;;5064040;28;20063;-54
2023/04/28 10:14:48;;;;;;;2.57;2.33;;;13.50;69.70;;;;;;5055555;28;20028;-53
2023/04/28 10:17:15;;;;;;;2.20;2.00;;;13.50;69.80;;;;;;5049590;28;20356;-55
2023/04/28 10:19:42;;;;;;;3.03;2.28;;;13.50;70.00;;;;;;5055040;28;20514;-56
2023/04/28 10:22:14;;;;;;;3.25;2.22;;;13.50;69.70;;;;;;5049954;28;20070;-60
2023/04/28 10:25:11;;;;;;;3.40;2.13;;;13.50;69.70;;;;;;5051205;28;20028;-59
2023/04/28 10:27:47;;;;;;;2.17;2.00;;;13.50;69.20;;;;;;5050291;28;20574;-58
2023/04/28 10:30:14;;;;;;;2.47;2.28;;;13.60;69.50;;;;;;5047675;28;20063;-60
2023/04/28 10:32:40;;;;;;;2.58;2.03;;;13.50;69.50;;;;;;5051679;28;20024;-60
2023/04/28 10:35:28;;;;;;;1.90;1.80;;;13.60;69.30;;;;;;5053549;28;20666;-60
2023/04/28 10:38:09;;;;;;;2.50;2.30;;;13.60;68.90;;;;;;5052614;28;20595;-60
2023/04/28 10:40:35;;;;;;;;;;;13.60;69.20;;;;;;5052057;28;20435;-60
2023/04/28 10:43:01;;;;;;;3.05;2.50;;;13.60;68.50;;;;;;5049870;28;19919;-61
2023/04/28 10:45:55;;;;;;;2.60;2.35;;;13.60;69.50;;;;;;5046148;28;20032;-62
2023/04/28 10:48:22;;;;;;;2.53;2.33;;;13.60;69.00;;;;;;5046805;28;20470;-61
2023/04/28 10:51:13;;;;;;;2.65;2.40;;;13.60;69.40;;;;;;5052245;28;20039;-59
2023/04/28 10:53:45;;;;;;;4.07;2.35;;;13.70;69.80;;;;;;5045022;28;20044;-59
2023/04/28 10:56:11;;;;;;;3.20;2.30;;;13.70;70.20;;;;;;5046209;28;20364;-58
2023/04/28 10:58:41;;;;;;;3.00;2.25;;;13.70;70.00;;;;;;5043500;28;20040;-59
2023/04/28 11:01:19;;;;;;;1.88;1.77;;;13.80;70.00;;;;;;5042155;28;21239;-58
2023/04/28 11:04:06;;;;;;;2.45;2.20;;;13.80;69.80;;;;;;5031549;28;20040;-58
2023/04/28 11:06:38;;;;;;;2.95;2.40;;;13.80;69.60;;;;;;5040641;28;20033;-59
2023/04/28 11:09:11;;;;;;;4.03;2.60;;;13.90;69.40;;;;;;5051297;28;20048;-59
2023/04/28 11:11:38;;;;;;;2.40;2.20;;;13.90;69.10;;;;;;5039357;28;20056;-58
2023/04/28 11:14:17;;;;;;;3.38;2.40;;;13.80;68.80;;;;;;5051091;28;20028;-58
2023/04/28 11:16:52;;;;;;;3.00;2.70;;;13.90;68.60;;;;;;5047113;28;20020;-56
2023/04/28 11:19:27;;;;;;;4.75;2.50;;;13.90;68.70;;;;;;5039634;28;20039;-58
2023/04/28 11:21:55;;;;;;;2.42;2.20;;;13.90;68.60;;;;;;5041339;28;20051;-59
2023/04/28 11:24:21;;;;;;;2.40;2.20;;;13.90;68.80;;;;;;5050461;28;20064;-58
2023/04/28 11:26:47;;;;;;;2.67;2.20;;;13.90;69.20;;;;;;5042974;28;20059;-56
2023/04/28 11:29:14;;;;;;;2.25;2.05;;;13.90;68.80;;;;;;5039806;28;20040;-57
2023/04/28 11:31:48;;;;;;;2.25;2.05;;;14.00;68.60;;;;;;5039255;28;20020;-57
2023/04/28 11:34:18;;;;;;;2.85;2.05;;;14.00;68.30;;;;;;5040224;28;20043;-58
2023/04/28 11:36:45;;;;;;;2.20;2.00;;;14.00;68.20;;;;;;5045416;28;20059;-58
2023/04/28 11:39:12;;;;;;;2.15;2.05;;;14.00;68.20;;;;;;5042065;28;20130;-58
2023/04/28 11:41:40;;;;;;;2.95;2.53;;;14.00;67.70;;;;;;5042341;28;20029;-57
2023/04/28 11:44:12;;;;;;;2.38;2.17;;;13.90;67.60;;;;;;5050725;28;20463;-58
2023/04/28 11:46:56;;;;;;;3.42;2.20;;;13.90;67.90;;;;;;5043692;28;20114;-57
2023/04/28 11:49:41;;;;;;;2.40;2.20;;;13.90;67.30;;;;;;5051729;28;20536;-55
2023/04/28 11:52:07;;;;;;;2.92;2.20;;;13.90;67.20;;;;;;5043227;28;20036;-61
2023/04/28 11:54:33;;;;;;;3.17;2.72;;;13.90;68.80;;;;;;5035893;28;20037;-60
2023/04/28 11:57:06;;;;;;;2.03;1.92;;;13.90;67.90;;;;;;5034039;28;20506;-59
2023/04/28 11:59:33;;;;;;;2.90;2.28;;;13.90;67.30;;;;;;5030971;28;20166;-58
2023/04/28 12:02:02;;;;;;;3.00;1.90;;;14.00;67.50;;;;;;5032993;28;20043;-59
2023/04/28 12:04:36;;;;;;;2.40;2.20;;;14.00;67.20;;;;;;5036953;28;20028;-58
2023/04/28 12:07:05;;;;;;;4.13;2.30;;;14.00;66.90;;;;;;5037306;28;20049;-55
2023/04/28 12:09:32;;;;;;;2.80;2.42;;;14.10;66.90;;;;;;5035362;28;20028;-58
2023/04/28 12:12:03;;;;;;;2.35;2.10;;;14.10;66.50;;;;;;5049619;28;21775;-56
2023/04/28 12:14:31;;;;;;;2.05;1.92;;;14.10;66.90;;;;;;5040366;28;20039;-58
2023/04/28 12:16:57;;;;;;;2.97;2.10;;;14.20;67.00;;;;;;5038207;28;20048;-57
2023/04/28 12:19:23;;;;;;;2.03;1.92;;;14.20;66.60;;;;;;5046294;28;20028;-56
2023/04/28 12:22:06;;;;;;;2.53;2.10;;;14.20;66.50;;;;;;5043440;28;20029;-59
2023/04/28 12:24:34;;;;;;;2.35;2.10;;;14.10;65.30;;;;;;5037580;28;20045;-57
2023/04/28 12:27:23;;;;;;;2.30;2.10;;;14.00;65.60;;;;;;5042826;28;20028;-57
2023/04/28 12:29:50;;;;;;;2.35;2.08;;;14.00;65.80;;;;;;5040425;28;20154;-58
2023/04/28 12:32:16;;;;;;;2.20;2.00;;;14.00;66.00;;;;;;5042241;28;20056;-57
2023/04/28 12:34:44;;;;;;;3.50;2.40;;;14.10;66.00;;;;;;5043556;28;20032;-58
2023/04/28 12:37:11;;;;;;;2.30;2.10;;;14.10;65.60;;;;;;5055415;28;20033;-60
2023/04/28 12:39:38;;;;;;;2.20;2.00;;;14.10;65.40;;;;;;5055653;28;20117;-59
2023/04/28 12:42:05;;;;;;;2.35;2.15;;;14.10;65.20;;;;;;5045563;28;20127;-59
2023/04/28 12:44:37;;;;;;;2.15;1.95;;;14.10;65.10;;;;;;5045438;28;20028;-57
2023/04/28 12:47:07;;;;;;;2.72;1.92;;;14.00;65.10;;;;;;5043392;28;20156;-58
2023/04/28 12:49:36;;;;;;;1.70;1.60;;;14.00;65.00;;;;;;5043970;28;20084;-58
2023/04/28 12:52:02;;;;;;;2.20;2.00;;;14.00;65.50;;;;;;5033702;28;20047;-59